CheckWX is a tool to help pilots better visualize weather data.  It is not intended as a substitute for an official pre-flight weather briefing.

17:21:03 UTC

KGGG TAF
East Texas Regional Airport
Longview, Texas, USA
KGGG 181135Z 1812/1912 VRB03KT P6SM FEW060 BKN280 FM181600 27004KT P6SM SCT060 BKN280 FM181800 27005KT P6SM SCT050 BKN250 FM190100 17004KT P6SM SCT250 FM191000 18006KT P6SM BKN250

Jun-18@
12:00 UTC

Jun-18 @ 12:00 UTC

Jun-18@
16:00 UTC

Jun-18 @ 16:00 UTC

KGGG 181135Z 1812/1912 VRB03KT P6SM FEW060 BKN280

Expired

Wind
  • Variable at 3 KTS
Cloud Levels
  • Few at 6,000' AGL
  • Broken at 28,000' AGL

Jun-18@
16:00 UTC

Jun-18 @ 16:00 UTC

Jun-18@
18:00 UTC

Jun-18 @ 18:00 UTC

FM181600 27004KT P6SM SCT060 BKN280

From

From Standard forecast or significant change

Wind
  • 270° at 4 KTS
Cloud Levels
  • Scattered at 6,000' AGL
  • Broken at 28,000' AGL

Jun-18@
18:00 UTC

Jun-18 @ 18:00 UTC

Jun-19@
01:00 UTC

Jun-19 @ 01:00 UTC

FM181800 27005KT P6SM SCT050 BKN250

From

From Standard forecast or significant change

Wind
  • 270° at 5 KTS
Cloud Levels
  • Scattered at 5,000' AGL
  • Broken at 25,000' AGL

Jun-19@
01:00 UTC

Jun-19 @ 01:00 UTC

Jun-19@
10:00 UTC

Jun-19 @ 10:00 UTC

FM190100 17004KT P6SM SCT250

From

From Standard forecast or significant change

Wind
  • 170° at 4 KTS
Cloud Levels
  • Scattered at 25,000' AGL

Jun-19@
10:00 UTC

Jun-19 @ 10:00 UTC

Jun-19@
12:00 UTC

Jun-19 @ 12:00 UTC

FM191000 18006KT P6SM BKN250

From

From Standard forecast or significant change

Wind
  • 180° at 6 KTS
Cloud Levels
  • Broken at 25,000' AGL